Archival Weather

Central Park

Central Park, New York (KNYC)

Report from: Thursday, September 21, 2023 3:51 PM EDT
Current time: Sunday, February 25, 2024 3:49 PM EST

Current weather – Weather history – Daily summaries
Weather forecast

Temperature21.1°C (70.0°F)
Dew point9.4°C (48.9°F)
Winds 3 kts (1.5 m/s, 3.5 mph) Vrb
Winds variableWinds variable
Visibility10 mi. (16.1 km)
Clouds Sky clear
Altimeter30.28 in.Hg (1025 mB)
Relative humidity47 %
Density altitude500 ft. (153 m)
Sea-level pressure102.5 kPa (1025 mB, 30.26 in.Hg)
Remarks Fully automated report
System requires maintenance
Automated weather observing station with precipitation discriminator
Flight conditions Visual Meteorological Conditions
Raw dataKNYC 211951Z AUTO VRB03KT 10SM CLR 21/09 A3028 RMK AO2 SLP246 T02110094 $
An error has occurred. This application may no longer respond until reloaded. Reload 🗙